To NAV CANADA Home Page Login to a new session Search on AWWS site Feedback and Comments Disclaimer Vers la page française équivalente Tips FAQ What's new on the site To the Forecasts and Observations / NOTAM section To "File a Flight Plan" website Publications and other links Update of the User's profile FIC Telephone Numbers My Weather Data Folder Route Weather Data Regional Weather Data Local Weather Data To the Forecasts and Observations / NOTAM section
Request Generated 07/05/2015 at 05:59:25 UTC . Weather information available at that time is displayed.

METAR/TAF

LLOYDMINSTER/AB    (show WxCam)

METAR CYLL 050500Z AUTO 29006KT 9SM FEW180 11/08 A2996 RMK SLP155=
SPECI CYLL 050411Z AUTO 33003KT 310V030 9SM FEW065 SCT080 BKN110
12/08 A2996 RMK SLP153 DENSITY ALT 2200FT=
SPECI CYLL 050406Z AUTO 34005KT 320V030 9SM TS FEW065 SCT079 OVC110
12/08 A2996 RMK LTNG DIST NE SLP152 DENSITY ALT 2300FT=
METAR CYLL 050400Z 02005KT 8SM FEW030CB BKN060 BKN220 13/08 A2995 RMK
CB1SC4CI2 FU SH CB NE LAST STFD OBS/NEXT 051300 UTC SLP150 DENSITY
ALT 2300FT=
METAR CYLL 050300Z 27006KT 6SM FU FEW035CB BKN080 BKN220 15/08 A2993
RMK CB1AC4CI2 CB E + S SLP140 DENSITY ALT 2600FT=

TAF CYLL 050538Z 0506/0518 30005KT P6SM SCT060 BKN100 TEMPO 0506/0509
P6SM -SHRA BKN060 OVC080
BECMG 0507/0509 30012KT
FM050900 30012KT P6SM SCT012 BKN040 TEMPO 0509/0514 4SM BR SCT006
OVC012 PROB30 0510/0514 3/4SM BR SCT002 OVC006
FM051400 35012G22KT P6SM BKN012 OVC040 TEMPO 0514/0518 SCT012
BKN040
RMK FCST BASED ON AUTO OBS. NXT FCST BY 051200Z=
Your time UTC time
Weather data provided by Environment Canada and NAV CANADA